sensor_id;sensor_type;location;lat;lon;timestamp;temperature;humidity
51801;DHT22;37855;53.204;6.568;2023-08-17T00:01:44;16.20;73.70
51801;DHT22;37855;53.204;6.568;2023-08-17T00:04:10;16.10;73.80
51801;DHT22;37855;53.204;6.568;2023-08-17T00:06:36;16.20;73.60
51801;DHT22;37855;53.204;6.568;2023-08-17T00:09:01;16.20;73.60
51801;DHT22;37855;53.204;6.568;2023-08-17T00:11:28;16.10;73.80
51801;DHT22;37855;53.204;6.568;2023-08-17T00:13:54;16.10;73.70
51801;DHT22;37855;53.204;6.568;2023-08-17T00:16:20;16.10;73.70
51801;DHT22;37855;53.204;6.568;2023-08-17T00:18:46;16.10;74.00
51801;DHT22;37855;53.204;6.568;2023-08-17T00:21:11;16.10;74.00
51801;DHT22;37855;53.204;6.568;2023-08-17T00:23:38;16.20;73.70
51801;DHT22;37855;53.204;6.568;2023-08-17T00:26:03;16.20;73.70
51801;DHT22;37855;53.204;6.568;2023-08-17T00:28:29;16.20;73.90
51801;DHT22;37855;53.204;6.568;2023-08-17T00:30:55;16.20;73.80
51801;DHT22;37855;53.204;6.568;2023-08-17T00:33:20;16.20;73.80
51801;DHT22;37855;53.204;6.568;2023-08-17T00:35:46;16.20;73.80
51801;DHT22;37855;53.204;6.568;2023-08-17T00:38:12;16.20;73.90
51801;DHT22;37855;53.204;6.568;2023-08-17T00:40:38;16.20;73.60
51801;DHT22;37855;53.204;6.568;2023-08-17T00:43:04;16.30;73.30
51801;DHT22;37855;53.204;6.568;2023-08-17T00:45:30;16.20;73.50
51801;DHT22;37855;53.204;6.568;2023-08-17T00:47:57;16.20;73.60
51801;DHT22;37855;53.204;6.568;2023-08-17T00:50:25;16.30;73.50
51801;DHT22;37855;53.204;6.568;2023-08-17T00:52:52;16.20;73.50
51801;DHT22;37855;53.204;6.568;2023-08-17T00:55:19;16.20;73.40
51801;DHT22;37855;53.204;6.568;2023-08-17T00:57:46;16.20;73.60
51801;DHT22;37855;53.204;6.568;2023-08-17T01:00:13;16.20;73.50
51801;DHT22;37855;53.204;6.568;2023-08-17T01:02:42;16.30;73.40
51801;DHT22;37855;53.204;6.568;2023-08-17T01:05:08;16.30;73.30
51801;DHT22;37855;53.204;6.568;2023-08-17T01:07:35;16.20;73.60
51801;DHT22;37855;53.204;6.568;2023-08-17T01:10:02;16.20;73.30
51801;DHT22;37855;53.204;6.568;2023-08-17T01:12:33;16.20;73.50
51801;DHT22;37855;53.204;6.568;2023-08-17T01:15:10;16.10;73.70
51801;DHT22;37855;53.204;6.568;2023-08-17T01:18:17;16.00;74.20
51801;DHT22;37855;53.204;6.568;2023-08-17T01:20:49;16.00;74.00
51801;DHT22;37855;53.204;6.568;2023-08-17T01:23:15;15.90;74.10
51801;DHT22;37855;53.204;6.568;2023-08-17T01:25:41;15.90;74.00
51801;DHT22;37855;53.204;6.568;2023-08-17T01:28:07;15.90;74.50
51801;DHT22;37855;53.204;6.568;2023-08-17T01:30:52;15.80;74.40
51801;DHT22;37855;53.204;6.568;2023-08-17T01:33:49;15.80;74.30
51801;DHT22;37855;53.204;6.568;2023-08-17T01:36:25;15.80;74.50
51801;DHT22;37855;53.204;6.568;2023-08-17T01:38:52;15.80;74.50
51801;DHT22;37855;53.204;6.568;2023-08-17T01:41:19;15.90;74.50
51801;DHT22;37855;53.204;6.568;2023-08-17T01:43:46;15.90;74.40
51801;DHT22;37855;53.204;6.568;2023-08-17T01:46:17;15.80;74.50
51801;DHT22;37855;53.204;6.568;2023-08-17T01:48:46;15.90;74.40
51801;DHT22;37855;53.204;6.568;2023-08-17T01:51:19;15.90;74.50
51801;DHT22;37855;53.204;6.568;2023-08-17T01:53:48;15.80;74.60
51801;DHT22;37855;53.204;6.568;2023-08-17T01:56:14;15.80;74.70
51801;DHT22;37855;53.204;6.568;2023-08-17T01:58:40;15.70;74.90
51801;DHT22;37855;53.204;6.568;2023-08-17T02:01:06;15.70;74.90
51801;DHT22;37855;53.204;6.568;2023-08-17T02:03:32;15.70;74.90
51801;DHT22;37855;53.204;6.568;2023-08-17T02:05:58;15.80;74.60
51801;DHT22;37855;53.204;6.568;2023-08-17T02:08:25;15.80;74.80
51801;DHT22;37855;53.204;6.568;2023-08-17T02:10:51;15.80;74.70
51801;DHT22;37855;53.204;6.568;2023-08-17T02:13:19;15.80;74.80
51801;DHT22;37855;53.204;6.568;2023-08-17T02:15:46;15.70;75.40
51801;DHT22;37855;53.204;6.568;2023-08-17T02:18:12;15.80;75.10
51801;DHT22;37855;53.204;6.568;2023-08-17T02:20:38;15.70;75.30
51801;DHT22;37855;53.204;6.568;2023-08-17T02:23:04;15.80;75.20
51801;DHT22;37855;53.204;6.568;2023-08-17T02:25:29;15.80;75.20
51801;DHT22;37855;53.204;6.568;2023-08-17T02:28:01;15.80;75.10
51801;DHT22;37855;53.204;6.568;2023-08-17T02:30:28;15.80;75.10
51801;DHT22;37855;53.204;6.568;2023-08-17T02:32:54;15.90;75.00
51801;DHT22;37855;53.204;6.568;2023-08-17T02:35:23;15.80;75.20
51801;DHT22;37855;53.204;6.568;2023-08-17T02:37:49;15.90;75.10
51801;DHT22;37855;53.204;6.568;2023-08-17T02:40:14;15.90;75.10
51801;DHT22;37855;53.204;6.568;2023-08-17T02:42:40;15.80;75.30
51801;DHT22;37855;53.204;6.568;2023-08-17T02:45:07;15.80;75.30
51801;DHT22;37855;53.204;6.568;2023-08-17T02:47:33;15.90;75.20
51801;DHT22;37855;53.204;6.568;2023-08-17T02:49:58;15.90;75.10
51801;DHT22;37855;53.204;6.568;2023-08-17T02:52:24;15.80;75.40
51801;DHT22;37855;53.204;6.568;2023-08-17T02:54:50;15.80;75.40
51801;DHT22;37855;53.204;6.568;2023-08-17T02:57:15;15.80;75.50
51801;DHT22;37855;53.204;6.568;2023-08-17T02:59:41;15.80;75.30
51801;DHT22;37855;53.204;6.568;2023-08-17T03:02:07;15.80;75.40
51801;DHT22;37855;53.204;6.568;2023-08-17T03:04:32;15.80;75.40
51801;DHT22;37855;53.204;6.568;2023-08-17T03:06:58;15.80;75.30
51801;DHT22;37855;53.204;6.568;2023-08-17T03:09:24;15.80;75.40
51801;DHT22;37855;53.204;6.568;2023-08-17T03:11:50;15.90;75.30
51801;DHT22;37855;53.204;6.568;2023-08-17T03:14:16;16.00;75.10
51801;DHT22;37855;53.204;6.568;2023-08-17T03:16:42;16.00;74.90
51801;DHT22;37855;53.204;6.568;2023-08-17T03:19:08;15.80;75.50
51801;DHT22;37855;53.204;6.568;2023-08-17T03:21:36;15.80;75.50
51801;DHT22;37855;53.204;6.568;2023-08-17T03:24:02;15.80;75.60
51801;DHT22;37855;53.204;6.568;2023-08-17T03:26:28;15.80;75.80
51801;DHT22;37855;53.204;6.568;2023-08-17T03:28:54;15.80;75.60
51801;DHT22;37855;53.204;6.568;2023-08-17T03:31:21;15.80;75.60
51801;DHT22;37855;53.204;6.568;2023-08-17T03:33:47;15.70;75.70
51801;DHT22;37855;53.204;6.568;2023-08-17T03:36:13;15.70;75.80
51801;DHT22;37855;53.204;6.568;2023-08-17T03:38:39;15.80;75.90
51801;DHT22;37855;53.204;6.568;2023-08-17T03:41:06;15.70;75.80
51801;DHT22;37855;53.204;6.568;2023-08-17T03:43:32;15.70;75.80
51801;DHT22;37855;53.204;6.568;2023-08-17T03:45:58;15.80;75.70
51801;DHT22;37855;53.204;6.568;2023-08-17T03:48:24;15.80;75.70
51801;DHT22;37855;53.204;6.568;2023-08-17T03:50:53;15.70;75.70
51801;DHT22;37855;53.204;6.568;2023-08-17T03:53:19;15.80;75.70
51801;DHT22;37855;53.204;6.568;2023-08-17T03:55:47;15.80;75.60
51801;DHT22;37855;53.204;6.568;2023-08-17T03:58:14;15.80;75.60
51801;DHT22;37855;53.204;6.568;2023-08-17T04:00:39;15.80;75.60
51801;DHT22;37855;53.204;6.568;2023-08-17T04:03:06;15.70;75.70
51801;DHT22;37855;53.204;6.568;2023-08-17T04:05:32;15.70;75.80
51801;DHT22;37855;53.204;6.568;2023-08-17T04:08:00;15.70;75.60
51801;DHT22;37855;53.204;6.568;2023-08-17T04:10:29;15.70;75.70
51801;DHT22;37855;53.204;6.568;2023-08-17T04:12:58;15.80;75.40
51801;DHT22;37855;53.204;6.568;2023-08-17T04:15:24;15.70;75.50
51801;DHT22;37855;53.204;6.568;2023-08-17T04:17:49;15.70;75.60
51801;DHT22;37855;53.204;6.568;2023-08-17T04:20:15;15.70;75.60
51801;DHT22;37855;53.204;6.568;2023-08-17T04:22:41;15.60;75.70
51801;DHT22;37855;53.204;6.568;2023-08-17T04:25:07;15.60;75.80
51801;DHT22;37855;53.204;6.568;2023-08-17T04:27:33;15.60;75.80
51801;DHT22;37855;53.204;6.568;2023-08-17T04:30:00;15.70;75.70
51801;DHT22;37855;53.204;6.568;2023-08-17T04:32:26;15.60;75.80
51801;DHT22;37855;53.204;6.568;2023-08-17T04:34:52;15.60;75.70
51801;DHT22;37855;53.204;6.568;2023-08-17T04:37:18;15.60;75.90
51801;DHT22;37855;53.204;6.568;2023-08-17T04:39:43;15.60;75.70
51801;DHT22;37855;53.204;6.568;2023-08-17T04:42:10;15.60;76.00
51801;DHT22;37855;53.204;6.568;2023-08-17T04:44:36;15.60;75.70
51801;DHT22;37855;53.204;6.568;2023-08-17T04:47:02;15.60;75.70
51801;DHT22;37855;53.204;6.568;2023-08-17T04:49:27;15.60;75.50
51801;DHT22;37855;53.204;6.568;2023-08-17T04:51:53;15.60;75.70
51801;DHT22;37855;53.204;6.568;2023-08-17T04:54:19;15.60;75.70
51801;DHT22;37855;53.204;6.568;2023-08-17T04:56:44;15.50;75.90
51801;DHT22;37855;53.204;6.568;2023-08-17T04:59:10;15.50;75.70
51801;DHT22;37855;53.204;6.568;2023-08-17T05:01:36;15.60;75.80
51801;DHT22;37855;53.204;6.568;2023-08-17T05:04:03;15.50;75.90
51801;DHT22;37855;53.204;6.568;2023-08-17T05:06:29;15.50;75.90
51801;DHT22;37855;53.204;6.568;2023-08-17T05:08:55;15.50;75.90
51801;DHT22;37855;53.204;6.568;2023-08-17T05:11:21;15.50;75.90
51801;DHT22;37855;53.204;6.568;2023-08-17T05:13:46;15.50;75.80
51801;DHT22;37855;53.204;6.568;2023-08-17T05:16:12;15.60;75.60
51801;DHT22;37855;53.204;6.568;2023-08-17T05:18:38;15.60;75.70
51801;DHT22;37855;53.204;6.568;2023-08-17T05:21:04;15.50;75.80
51801;DHT22;37855;53.204;6.568;2023-08-17T05:23:29;15.60;75.60
51801;DHT22;37855;53.204;6.568;2023-08-17T05:25:55;15.60;75.70
51801;DHT22;37855;53.204;6.568;2023-08-17T05:28:21;15.70;75.80
51801;DHT22;37855;53.204;6.568;2023-08-17T05:30:47;15.70;76.00
51801;DHT22;37855;53.204;6.568;2023-08-17T05:33:12;15.70;75.80
51801;DHT22;37855;53.204;6.568;2023-08-17T05:35:38;15.70;75.90
51801;DHT22;37855;53.204;6.568;2023-08-17T05:38:04;15.70;76.00
51801;DHT22;37855;53.204;6.568;2023-08-17T05:40:30;15.80;76.00
51801;DHT22;37855;53.204;6.568;2023-08-17T05:42:56;15.80;75.90
51801;DHT22;37855;53.204;6.568;2023-08-17T05:45:22;15.90;75.80
51801;DHT22;37855;53.204;6.568;2023-08-17T05:47:48;15.90;75.90
51801;DHT22;37855;53.204;6.568;2023-08-17T05:50:13;15.90;75.90
51801;DHT22;37855;53.204;6.568;2023-08-17T05:52:40;16.00;76.00
51801;DHT22;37855;53.204;6.568;2023-08-17T05:55:06;16.00;75.90
51801;DHT22;37855;53.204;6.568;2023-08-17T05:57:33;16.10;75.70
51801;DHT22;37855;53.204;6.568;2023-08-17T05:59:58;16.20;75.80
51801;DHT22;37855;53.204;6.568;2023-08-17T06:02:24;16.30;75.70
51801;DHT22;37855;53.204;6.568;2023-08-17T06:04:50;16.40;75.60
51801;DHT22;37855;53.204;6.568;2023-08-17T06:07:15;16.50;75.30
51801;DHT22;37855;53.204;6.568;2023-08-17T06:09:41;16.50;75.10
51801;DHT22;37855;53.204;6.568;2023-08-17T06:12:07;16.60;75.10
51801;DHT22;37855;53.204;6.568;2023-08-17T06:14:33;16.60;75.10
51801;DHT22;37855;53.204;6.568;2023-08-17T06:17:00;16.60;75.20
51801;DHT22;37855;53.204;6.568;2023-08-17T06:19:26;16.70;75.20
51801;DHT22;37855;53.204;6.568;2023-08-17T06:21:51;16.70;75.00
51801;DHT22;37855;53.204;6.568;2023-08-17T06:24:17;16.80;75.00
51801;DHT22;37855;53.204;6.568;2023-08-17T06:26:44;16.80;74.80
51801;DHT22;37855;53.204;6.568;2023-08-17T06:29:11;16.90;75.00
51801;DHT22;37855;53.204;6.568;2023-08-17T06:31:36;17.00;74.80
51801;DHT22;37855;53.204;6.568;2023-08-17T06:34:02;17.00;74.70
51801;DHT22;37855;53.204;6.568;2023-08-17T06:36:31;17.00;74.40
51801;DHT22;37855;53.204;6.568;2023-08-17T06:38:58;17.20;74.30
51801;DHT22;37855;53.204;6.568;2023-08-17T06:41:23;17.40;73.90
51801;DHT22;37855;53.204;6.568;2023-08-17T06:43:50;17.50;73.30
51801;DHT22;37855;53.204;6.568;2023-08-17T06:46:16;17.60;72.70
51801;DHT22;37855;53.204;6.568;2023-08-17T06:48:43;17.60;72.60
51801;DHT22;37855;53.204;6.568;2023-08-17T06:51:09;17.70;72.10
51801;DHT22;37855;53.204;6.568;2023-08-17T06:53:34;17.80;72.30
51801;DHT22;37855;53.204;6.568;2023-08-17T06:56:00;17.90;71.50
51801;DHT22;37855;53.204;6.568;2023-08-17T06:58:26;18.00;70.60
51801;DHT22;37855;53.204;6.568;2023-08-17T07:00:52;17.90;71.00
51801;DHT22;37855;53.204;6.568;2023-08-17T07:03:18;18.00;71.20
51801;DHT22;37855;53.204;6.568;2023-08-17T07:05:43;18.00;70.90
51801;DHT22;37855;53.204;6.568;2023-08-17T07:08:09;18.00;70.60
51801;DHT22;37855;53.204;6.568;2023-08-17T07:10:38;18.10;70.20
51801;DHT22;37855;53.204;6.568;2023-08-17T07:13:04;18.20;70.40
51801;DHT22;37855;53.204;6.568;2023-08-17T07:15:30;18.30;70.10
51801;DHT22;37855;53.204;6.568;2023-08-17T07:17:56;18.30;69.70
51801;DHT22;37855;53.204;6.568;2023-08-17T07:20:25;18.20;69.50
51801;DHT22;37855;53.204;6.568;2023-08-17T07:22:52;18.10;69.50
51801;DHT22;37855;53.204;6.568;2023-08-17T07:25:19;18.00;69.80
51801;DHT22;37855;53.204;6.568;2023-08-17T07:27:45;18.00;69.90
51801;DHT22;37855;53.204;6.568;2023-08-17T07:30:11;18.00;70.00
51801;DHT22;37855;53.204;6.568;2023-08-17T07:32:37;18.00;69.70
51801;DHT22;37855;53.204;6.568;2023-08-17T07:35:03;18.10;69.10
51801;DHT22;37855;53.204;6.568;2023-08-17T07:37:29;18.00;68.50
51801;DHT22;37855;53.204;6.568;2023-08-17T07:39:59;17.90;68.60
51801;DHT22;37855;53.204;6.568;2023-08-17T07:42:25;17.90;68.60
51801;DHT22;37855;53.204;6.568;2023-08-17T07:44:51;17.80;68.50
51801;DHT22;37855;53.204;6.568;2023-08-17T07:47:17;17.70;68.80
51801;DHT22;37855;53.204;6.568;2023-08-17T07:49:42;17.70;69.20
51801;DHT22;37855;53.204;6.568;2023-08-17T07:52:08;17.80;69.10
51801;DHT22;37855;53.204;6.568;2023-08-17T07:54:34;17.90;68.20
51801;DHT22;37855;53.204;6.568;2023-08-17T07:57:00;18.00;68.40
51801;DHT22;37855;53.204;6.568;2023-08-17T07:59:29;18.10;67.60
51801;DHT22;37855;53.204;6.568;2023-08-17T08:01:55;18.10;67.50
51801;DHT22;37855;53.204;6.568;2023-08-17T08:04:21;18.10;67.60
51801;DHT22;37855;53.204;6.568;2023-08-17T08:06:51;18.10;67.40
51801;DHT22;37855;53.204;6.568;2023-08-17T08:09:24;18.20;67.10
51801;DHT22;37855;53.204;6.568;2023-08-17T08:11:51;18.20;67.10
51801;DHT22;37855;53.204;6.568;2023-08-17T08:14:16;18.30;66.40
51801;DHT22;37855;53.204;6.568;2023-08-17T08:16:42;18.40;66.60
51801;DHT22;37855;53.204;6.568;2023-08-17T08:19:08;18.40;66.80
51801;DHT22;37855;53.204;6.568;2023-08-17T08:21:34;18.50;66.70
51801;DHT22;37855;53.204;6.568;2023-08-17T08:23:59;18.60;66.10
51801;DHT22;37855;53.204;6.568;2023-08-17T08:26:25;18.60;65.70
51801;DHT22;37855;53.204;6.568;2023-08-17T08:28:51;18.50;65.90
51801;DHT22;37855;53.204;6.568;2023-08-17T08:31:16;18.30;65.80
51801;DHT22;37855;53.204;6.568;2023-08-17T08:33:43;18.20;65.30
51801;DHT22;37855;53.204;6.568;2023-08-17T08:36:08;18.20;66.10
51801;DHT22;37855;53.204;6.568;2023-08-17T08:38:34;18.20;66.50
51801;DHT22;37855;53.204;6.568;2023-08-17T08:41:02;18.20;66.50
51801;DHT22;37855;53.204;6.568;2023-08-17T08:43:28;18.20;67.10
51801;DHT22;37855;53.204;6.568;2023-08-17T08:45:55;18.30;66.90
51801;DHT22;37855;53.204;6.568;2023-08-17T08:48:22;18.40;66.40
51801;DHT22;37855;53.204;6.568;2023-08-17T08:50:54;18.40;65.80
51801;DHT22;37855;53.204;6.568;2023-08-17T08:53:28;18.50;65.60
51801;DHT22;37855;53.204;6.568;2023-08-17T08:55:58;18.40;65.90
51801;DHT22;37855;53.204;6.568;2023-08-17T08:58:25;18.40;66.10
51801;DHT22;37855;53.204;6.568;2023-08-17T09:00:52;18.40;65.90
51801;DHT22;37855;53.204;6.568;2023-08-17T09:03:19;18.40;65.50
51801;DHT22;37855;53.204;6.568;2023-08-17T09:05:49;18.40;65.40
51801;DHT22;37855;53.204;6.568;2023-08-17T09:08:20;18.30;65.30
51801;DHT22;37855;53.204;6.568;2023-08-17T09:10:46;18.30;65.70
51801;DHT22;37855;53.204;6.568;2023-08-17T09:13:12;18.40;65.50
51801;DHT22;37855;53.204;6.568;2023-08-17T09:15:38;18.50;65.40
51801;DHT22;37855;53.204;6.568;2023-08-17T09:18:05;18.50;65.40
51801;DHT22;37855;53.204;6.568;2023-08-17T09:20:45;18.50;65.10
51801;DHT22;37855;53.204;6.568;2023-08-17T09:25:43;18.90;64.80
51801;DHT22;37855;53.204;6.568;2023-08-17T09:28:13;19.00;64.30
51801;DHT22;37855;53.204;6.568;2023-08-17T09:31:02;19.10;64.10
51801;DHT22;37855;53.204;6.568;2023-08-17T09:33:33;19.10;64.40
51801;DHT22;37855;53.204;6.568;2023-08-17T09:36:00;19.20;64.60
51801;DHT22;37855;53.204;6.568;2023-08-17T09:38:27;19.30;64.70
51801;DHT22;37855;53.204;6.568;2023-08-17T09:40:54;19.40;64.20
51801;DHT22;37855;53.204;6.568;2023-08-17T09:43:20;19.30;64.20
51801;DHT22;37855;53.204;6.568;2023-08-17T09:45:49;19.30;64.30
51801;DHT22;37855;53.204;6.568;2023-08-17T09:48:16;19.20;64.10
51801;DHT22;37855;53.204;6.568;2023-08-17T09:50:44;19.10;64.10
51801;DHT22;37855;53.204;6.568;2023-08-17T09:53:15;19.10;64.40
51801;DHT22;37855;53.204;6.568;2023-08-17T09:55:42;19.20;64.50
51801;DHT22;37855;53.204;6.568;2023-08-17T09:58:09;19.20;64.50
51801;DHT22;37855;53.204;6.568;2023-08-17T10:00:38;19.30;64.80
51801;DHT22;37855;53.204;6.568;2023-08-17T10:03:05;19.30;64.40
51801;DHT22;37855;53.204;6.568;2023-08-17T10:05:35;19.30;64.80
51801;DHT22;37855;53.204;6.568;2023-08-17T10:08:04;19.30;65.00
51801;DHT22;37855;53.204;6.568;2023-08-17T10:10:32;19.50;64.50
51801;DHT22;37855;53.204;6.568;2023-08-17T10:13:10;19.60;64.30
51801;DHT22;37855;53.204;6.568;2023-08-17T10:16:23;19.50;64.30
51801;DHT22;37855;53.204;6.568;2023-08-17T10:21:30;19.40;65.20
51801;DHT22;37855;53.204;6.568;2023-08-17T10:23:57;19.50;65.30
51801;DHT22;37855;53.204;6.568;2023-08-17T10:26:24;19.50;65.20
51801;DHT22;37855;53.204;6.568;2023-08-17T10:28:51;19.60;64.70
51801;DHT22;37855;53.204;6.568;2023-08-17T10:31:17;19.70;64.90
51801;DHT22;37855;53.204;6.568;2023-08-17T10:33:44;19.80;64.30
51801;DHT22;37855;53.204;6.568;2023-08-17T10:36:13;19.80;64.60
51801;DHT22;37855;53.204;6.568;2023-08-17T10:38:39;19.70;65.00
51801;DHT22;37855;53.204;6.568;2023-08-17T10:43:34;20.00;64.60
51801;DHT22;37855;53.204;6.568;2023-08-17T10:46:16;20.00;64.40
51801;DHT22;37855;53.204;6.568;2023-08-17T10:48:44;20.10;64.10
51801;DHT22;37855;53.204;6.568;2023-08-17T10:51:13;20.10;64.20
51801;DHT22;37855;53.204;6.568;2023-08-17T10:53:42;20.20;64.60
51801;DHT22;37855;53.204;6.568;2023-08-17T10:56:12;20.30;64.20
51801;DHT22;37855;53.204;6.568;2023-08-17T10:58:38;20.40;63.70
51801;DHT22;37855;53.204;6.568;2023-08-17T11:01:04;20.40;63.70
51801;DHT22;37855;53.204;6.568;2023-08-17T11:03:30;20.50;64.10
51801;DHT22;37855;53.204;6.568;2023-08-17T11:05:57;20.50;64.10
51801;DHT22;37855;53.204;6.568;2023-08-17T11:08:37;20.40;64.20
51801;DHT22;37855;53.204;6.568;2023-08-17T11:11:11;20.60;63.80
51801;DHT22;37855;53.204;6.568;2023-08-17T11:13:45;20.70;63.50
51801;DHT22;37855;53.204;6.568;2023-08-17T11:16:13;20.70;63.60
51801;DHT22;37855;53.204;6.568;2023-08-17T11:18:40;20.60;64.00
51801;DHT22;37855;53.204;6.568;2023-08-17T11:21:11;20.60;63.80
51801;DHT22;37855;53.204;6.568;2023-08-17T11:23:37;20.50;64.20
51801;DHT22;37855;53.204;6.568;2023-08-17T11:26:04;20.70;63.90
51801;DHT22;37855;53.204;6.568;2023-08-17T11:28:31;20.70;64.00
51801;DHT22;37855;53.204;6.568;2023-08-17T11:31:05;20.80;63.70
51801;DHT22;37855;53.204;6.568;2023-08-17T11:33:32;20.80;63.70
51801;DHT22;37855;53.204;6.568;2023-08-17T11:36:00;20.70;64.10
51801;DHT22;37855;53.204;6.568;2023-08-17T11:38:30;20.70;64.00
51801;DHT22;37855;53.204;6.568;2023-08-17T11:40:58;20.70;64.10
51801;DHT22;37855;53.204;6.568;2023-08-17T11:43:24;20.80;64.00
51801;DHT22;37855;53.204;6.568;2023-08-17T11:45:51;20.90;63.90
51801;DHT22;37855;53.204;6.568;2023-08-17T11:48:20;20.90;63.60
51801;DHT22;37855;53.204;6.568;2023-08-17T11:50:46;20.90;63.60
51801;DHT22;37855;53.204;6.568;2023-08-17T11:53:12;20.80;63.70
51801;DHT22;37855;53.204;6.568;2023-08-17T11:55:37;20.80;63.90
51801;DHT22;37855;53.204;6.568;2023-08-17T11:58:03;20.60;64.20
51801;DHT22;37855;53.204;6.568;2023-08-17T12:00:35;20.60;64.50
51801;DHT22;37855;53.204;6.568;2023-08-17T12:03:03;20.60;64.30
51801;DHT22;37855;53.204;6.568;2023-08-17T12:05:31;20.60;64.50
51801;DHT22;37855;53.204;6.568;2023-08-17T12:08:00;20.60;64.60
51801;DHT22;37855;53.204;6.568;2023-08-17T12:10:33;20.70;64.80
51801;DHT22;37855;53.204;6.568;2023-08-17T12:12:59;20.70;64.70
51801;DHT22;37855;53.204;6.568;2023-08-17T12:15:30;20.70;64.70
51801;DHT22;37855;53.204;6.568;2023-08-17T12:17:59;20.80;64.50
51801;DHT22;37855;53.204;6.568;2023-08-17T12:20:25;20.80;64.80
51801;DHT22;37855;53.204;6.568;2023-08-17T12:22:50;20.80;64.80
51801;DHT22;37855;53.204;6.568;2023-08-17T12:25:21;20.90;64.90
51801;DHT22;37855;53.204;6.568;2023-08-17T12:27:48;20.90;64.20
51801;DHT22;37855;53.204;6.568;2023-08-17T12:30:27;20.80;64.50
51801;DHT22;37855;53.204;6.568;2023-08-17T12:32:53;20.80;64.80
51801;DHT22;37855;53.204;6.568;2023-08-17T12:35:20;20.80;64.70
51801;DHT22;37855;53.204;6.568;2023-08-17T12:37:48;20.80;64.70
51801;DHT22;37855;53.204;6.568;2023-08-17T12:40:14;20.90;64.80
51801;DHT22;37855;53.204;6.568;2023-08-17T12:42:40;20.90;65.30
51801;DHT22;37855;53.204;6.568;2023-08-17T12:45:06;20.90;64.90
51801;DHT22;37855;53.204;6.568;2023-08-17T12:47:31;20.80;65.20
51801;DHT22;37855;53.204;6.568;2023-08-17T12:49:57;20.70;65.50
51801;DHT22;37855;53.204;6.568;2023-08-17T12:52:23;20.50;66.10
51801;DHT22;37855;53.204;6.568;2023-08-17T12:54:49;20.40;66.20
51801;DHT22;37855;53.204;6.568;2023-08-17T12:57:14;20.40;66.50
51801;DHT22;37855;53.204;6.568;2023-08-17T12:59:41;20.40;66.40
51801;DHT22;37855;53.204;6.568;2023-08-17T13:02:10;20.50;66.20
51801;DHT22;37855;53.204;6.568;2023-08-17T13:04:42;20.50;66.20
51801;DHT22;37855;53.204;6.568;2023-08-17T13:07:08;20.60;66.10
51801;DHT22;37855;53.204;6.568;2023-08-17T13:09:37;20.70;65.80
51801;DHT22;37855;53.204;6.568;2023-08-17T13:12:03;20.70;65.70
51801;DHT22;37855;53.204;6.568;2023-08-17T13:14:29;20.70;65.70
51801;DHT22;37855;53.204;6.568;2023-08-17T13:16:55;20.70;65.80
51801;DHT22;37855;53.204;6.568;2023-08-17T13:19:20;20.70;65.80
51801;DHT22;37855;53.204;6.568;2023-08-17T13:21:46;20.70;65.70
51801;DHT22;37855;53.204;6.568;2023-08-17T13:24:12;20.60;66.20
51801;DHT22;37855;53.204;6.568;2023-08-17T13:26:38;20.60;66.20
51801;DHT22;37855;53.204;6.568;2023-08-17T13:29:04;20.70;66.10
51801;DHT22;37855;53.204;6.568;2023-08-17T13:31:33;20.60;66.50
51801;DHT22;37855;53.204;6.568;2023-08-17T13:33:59;20.50;66.70
51801;DHT22;37855;53.204;6.568;2023-08-17T13:36:24;20.20;67.10
51801;DHT22;37855;53.204;6.568;2023-08-17T13:38:50;20.20;67.40
51801;DHT22;37855;53.204;6.568;2023-08-17T13:41:16;20.30;67.40
51801;DHT22;37855;53.204;6.568;2023-08-17T13:43:41;20.20;67.60
51801;DHT22;37855;53.204;6.568;2023-08-17T13:46:07;20.30;67.50
51801;DHT22;37855;53.204;6.568;2023-08-17T13:48:33;20.30;67.30
51801;DHT22;37855;53.204;6.568;2023-08-17T13:50:59;20.40;67.00
51801;DHT22;37855;53.204;6.568;2023-08-17T13:53:24;20.30;67.10
51801;DHT22;37855;53.204;6.568;2023-08-17T13:55:50;20.40;67.10
51801;DHT22;37855;53.204;6.568;2023-08-17T13:58:16;20.40;66.70
51801;DHT22;37855;53.204;6.568;2023-08-17T14:00:42;20.40;66.70
51801;DHT22;37855;53.204;6.568;2023-08-17T14:03:10;20.50;66.70
51801;DHT22;37855;53.204;6.568;2023-08-17T14:05:36;20.60;66.50
51801;DHT22;37855;53.204;6.568;2023-08-17T14:08:05;20.60;66.20
51801;DHT22;37855;53.204;6.568;2023-08-17T14:10:32;20.50;66.50
51801;DHT22;37855;53.204;6.568;2023-08-17T14:13:04;20.40;66.60
51801;DHT22;37855;53.204;6.568;2023-08-17T14:15:31;20.40;66.70
51801;DHT22;37855;53.204;6.568;2023-08-17T14:17:57;20.30;67.10
51801;DHT22;37855;53.204;6.568;2023-08-17T14:20:23;20.20;67.40
51801;DHT22;37855;53.204;6.568;2023-08-17T14:22:48;20.20;67.50
51801;DHT22;37855;53.204;6.568;2023-08-17T14:25:14;20.20;67.60
51801;DHT22;37855;53.204;6.568;2023-08-17T14:27:44;20.20;67.60
51801;DHT22;37855;53.204;6.568;2023-08-17T14:30:10;20.30;67.30
51801;DHT22;37855;53.204;6.568;2023-08-17T14:32:36;20.20;67.90
51801;DHT22;37855;53.204;6.568;2023-08-17T14:35:01;20.10;67.80
51801;DHT22;37855;53.204;6.568;2023-08-17T14:37:27;20.10;68.00
51801;DHT22;37855;53.204;6.568;2023-08-17T14:39:53;20.10;68.10
51801;DHT22;37855;53.204;6.568;2023-08-17T14:42:18;20.20;67.90
51801;DHT22;37855;53.204;6.568;2023-08-17T14:44:44;20.10;68.00
51801;DHT22;37855;53.204;6.568;2023-08-17T14:47:12;20.10;68.10
51801;DHT22;37855;53.204;6.568;2023-08-17T14:49:38;20.10;68.20
51801;DHT22;37855;53.204;6.568;2023-08-17T14:52:04;20.10;68.30
51801;DHT22;37855;53.204;6.568;2023-08-17T14:54:30;20.10;68.20
51801;DHT22;37855;53.204;6.568;2023-08-17T14:56:56;20.10;68.30
51801;DHT22;37855;53.204;6.568;2023-08-17T14:59:21;20.00;68.50
51801;DHT22;37855;53.204;6.568;2023-08-17T15:01:47;20.00;68.70
51801;DHT22;37855;53.204;6.568;2023-08-17T15:04:14;20.10;69.50
51801;DHT22;37855;53.204;6.568;2023-08-17T15:06:40;20.10;68.80
51801;DHT22;37855;53.204;6.568;2023-08-17T15:09:06;20.20;68.60
51801;DHT22;37855;53.204;6.568;2023-08-17T15:11:31;20.20;68.40
51801;DHT22;37855;53.204;6.568;2023-08-17T15:13:57;20.10;68.80
51801;DHT22;37855;53.204;6.568;2023-08-17T15:16:23;19.90;69.00
51801;DHT22;37855;53.204;6.568;2023-08-17T15:18:53;19.90;69.10
51801;DHT22;37855;53.204;6.568;2023-08-17T15:21:19;19.80;69.50
51801;DHT22;37855;53.204;6.568;2023-08-17T15:23:45;19.70;69.80
51801;DHT22;37855;53.204;6.568;2023-08-17T15:26:11;19.70;69.80
51801;DHT22;37855;53.204;6.568;2023-08-17T15:28:39;19.60;70.30
51801;DHT22;37855;53.204;6.568;2023-08-17T15:31:05;19.70;70.00
51801;DHT22;37855;53.204;6.568;2023-08-17T15:33:31;19.60;70.20
51801;DHT22;37855;53.204;6.568;2023-08-17T15:36:14;19.60;70.40
51801;DHT22;37855;53.204;6.568;2023-08-17T15:38:43;19.70;70.40